Time;durP1;ratioP1;P1;durP2;ratioP2;P2;SDS_P1;SDS_P2;PMS_P1;PMS_P2;Temp;Humidity;BMP_temperature;BMP_pressure;BME280_temperature;BME280_humidity;BME280_pressure;Samples;Min_cycle;Max_cycle;Signal;HPM_P1;HPM_P2
2022/06/19 00:00:55;;;;;;;18.15;5.70;;;23.70;68.80;;;;;;4982962;28;20183;-66
2022/06/19 00:03:40;;;;;;;16.90;5.80;;;23.70;68.80;;;;;;4965458;28;20046;-67
2022/06/19 00:06:06;;;;;;;14.25;6.05;;;23.70;67.70;;;;;;4952363;28;20034;-67
2022/06/19 00:08:32;;;;;;;14.43;5.45;;;23.60;68.10;;;;;;4965515;28;20027;-67
2022/06/19 00:10:59;;;;;;;13.95;5.18;;;23.60;68.40;;;;;;4982882;28;20050;-67
2022/06/19 00:13:25;;;;;;;13.57;4.80;;;23.60;67.40;;;;;;4933655;28;20085;-67
2022/06/19 00:15:50;;;;;;;15.33;5.60;;;23.60;68.30;;;;;;4982133;28;20038;-67
2022/06/19 00:18:16;;;;;;;12.90;4.90;;;23.60;67.40;;;;;;4982734;28;20094;-67
2022/06/19 00:20:42;;;;;;;15.77;4.63;;;23.60;67.80;;;;;;4982651;28;20266;-67
2022/06/19 00:23:08;;;;;;;14.60;5.10;;;23.60;66.60;;;;;;4982140;28;20031;-67
2022/06/19 00:25:34;;;;;;;12.57;5.40;;;23.60;67.20;;;;;;4982671;28;20121;-67
2022/06/19 00:28:00;;;;;;;10.32;4.95;;;23.50;67.80;;;;;;4978995;28;20030;-67
2022/06/19 00:30:26;;;;;;;12.75;5.70;;;23.50;67.80;;;;;;4981211;28;20097;-67
2022/06/19 00:32:52;;;;;;;15.07;5.40;;;23.60;67.60;;;;;;4990235;28;20237;-67
2022/06/19 00:35:18;;;;;;;13.00;5.22;;;23.60;66.20;;;;;;4995741;28;20237;-67
2022/06/19 00:37:45;;;;;;;11.73;4.60;;;23.50;66.50;;;;;;4993612;28;20038;-67
2022/06/19 00:40:11;;;;;;;8.80;4.68;;;23.60;67.30;;;;;;4984395;28;20029;-67
2022/06/19 00:42:37;;;;;;;13.07;4.82;;;23.60;67.30;;;;;;5001582;28;20046;-67
2022/06/19 00:45:03;;;;;;;9.00;4.30;;;23.60;66.10;;;;;;4991909;28;20134;-67
2022/06/19 00:47:32;;;;;;;;;;;23.60;65.50;;;;;;4982834;28;20050;-67
2022/06/19 00:50:25;;;;;;;8.80;4.85;;;23.60;67.10;;;;;;4987634;28;19905;-67
2022/06/19 00:52:51;;;;;;;11.73;4.45;;;23.50;67.10;;;;;;4939965;28;20109;-67
2022/06/19 00:55:25;;;;;;;13.50;4.60;;;23.50;66.70;;;;;;4984049;28;20022;-67
2022/06/19 00:57:58;;;;;;;9.38;3.85;;;23.60;66.50;;;;;;5001569;28;20268;-67
2022/06/19 01:00:26;;;;;;;9.70;4.30;;;23.50;66.70;;;;;;4984437;28;20022;-67
2022/06/19 01:03:09;;;;;;;17.88;4.50;;;23.40;65.20;;;;;;4984086;28;20022;-67
2022/06/19 01:05:36;;;;;;;7.78;4.18;;;23.40;66.00;;;;;;4984070;28;20198;-67
2022/06/19 01:08:02;;;;;;;7.80;3.85;;;23.40;66.00;;;;;;4984125;28;20033;-66
2022/06/19 01:10:30;;;;;;;10.70;4.72;;;23.30;65.60;;;;;;5001204;28;20228;-67
2022/06/19 01:12:56;;;;;;;9.43;3.72;;;23.30;66.40;;;;;;4984160;28;20069;-67
2022/06/19 01:15:23;;;;;;;11.77;3.90;;;23.30;66.40;;;;;;4972198;28;20034;-67
2022/06/19 01:17:52;;;;;;;9.40;3.90;;;23.30;65.80;;;;;;4964716;28;20031;-67
2022/06/19 01:20:18;;;;;;;6.20;3.45;;;23.30;66.60;;;;;;4964726;28;20110;-67
2022/06/19 01:23:24;;;;;;;9.17;3.70;;;23.30;66.00;;;;;;4975656;28;20173;-67
2022/06/19 01:25:50;;;;;;;9.68;4.40;;;23.20;67.00;;;;;;5000671;28;20104;-67
2022/06/19 01:31:16;;;;;;;9.68;4.80;;;23.20;67.50;;;;;;4986719;28;20052;-67
2022/06/19 01:34:41;;;;;;;10.05;4.68;;;23.20;67.70;;;;;;4967721;28;20037;-67
2022/06/19 01:37:22;;;;;;;11.45;4.90;;;23.20;68.10;;;;;;4999049;22;20037;-70
2022/06/19 01:40:11;;;;;;;8.68;3.85;;;23.10;67.60;;;;;;5006020;28;20056;-71
2022/06/19 01:42:37;;;;;;;9.77;3.88;;;23.10;68.30;;;;;;4977337;28;20086;-71
2022/06/19 01:45:04;;;;;;;7.07;3.67;;;23.10;68.90;;;;;;4999997;28;20025;-71
2022/06/19 01:47:30;;;;;;;11.70;4.38;;;23.10;67.50;;;;;;5003564;28;20389;-71
2022/06/19 01:49:56;;;;;;;14.70;4.27;;;23.00;68.70;;;;;;4969021;28;20067;-70
2022/06/19 01:52:23;;;;;;;9.07;3.88;;;23.00;68.60;;;;;;4978354;28;20081;-70
2022/06/19 01:55:13;;;;;;;9.38;4.30;;;23.00;69.10;;;;;;4945855;28;20026;-71
2022/06/19 01:57:43;;;;;;;7.72;4.50;;;23.00;69.40;;;;;;4969083;28;20279;-71
2022/06/19 02:00:13;;;;;;;9.88;4.97;;;23.00;69.20;;;;;;4969417;28;20067;-71
2022/06/19 02:02:41;;;;;;;11.27;4.22;;;22.90;70.00;;;;;;4980220;28;20148;-71
2022/06/19 02:05:07;;;;;;;8.98;4.18;;;22.90;68.90;;;;;;4972341;28;20022;-71
2022/06/19 02:07:33;;;;;;;9.98;3.90;;;22.90;68.40;;;;;;4969178;28;20055;-71
2022/06/19 02:10:00;;;;;;;8.37;3.63;;;22.90;69.30;;;;;;4953021;28;20022;-71
2022/06/19 02:12:27;;;;;;;10.88;4.43;;;22.90;69.90;;;;;;4968938;28;20082;-71
2022/06/19 02:14:53;;;;;;;11.48;4.80;;;22.90;68.60;;;;;;4968525;28;20030;-71
2022/06/19 02:17:27;;;;;;;8.30;4.83;;;22.80;68.40;;;;;;4976687;28;20041;-71
2022/06/19 02:19:52;;;;;;;11.27;4.00;;;22.80;68.50;;;;;;4945850;28;20085;-71
2022/06/19 02:22:18;;;;;;;13.35;4.20;;;22.70;68.80;;;;;;4952688;28;20042;-71
2022/06/19 02:24:44;;;;;;;8.37;3.97;;;22.70;69.40;;;;;;4984176;28;20038;-71
2022/06/19 02:27:10;;;;;;;6.70;4.03;;;22.60;69.10;;;;;;4984074;28;20037;-71
2022/06/19 02:29:38;;;;;;;6.90;3.55;;;22.50;68.80;;;;;;4985720;28;20027;-71
2022/06/19 02:32:05;;;;;;;10.57;4.30;;;22.50;67.10;;;;;;4968527;28;20050;-71
2022/06/19 02:34:39;;;;;;;8.55;3.85;;;22.40;67.60;;;;;;4968202;28;20034;-71
2022/06/19 02:37:10;;;;;;;11.15;4.43;;;22.40;69.20;;;;;;4985478;28;20023;-71
2022/06/19 02:39:58;;;;;;;9.48;3.90;;;22.30;68.70;;;;;;4969043;28;20313;-71
2022/06/19 02:42:30;;;;;;;;;;;22.30;68.70;;;;;;4976955;28;20041;-71
2022/06/19 02:45:01;;;;;;;13.50;4.13;;;22.30;69.90;;;;;;4981437;28;19912;-71
2022/06/19 02:47:27;;;;;;;6.80;3.60;;;22.30;69.60;;;;;;4972511;28;20046;-71
2022/06/19 02:49:53;;;;;;;;;;;22.30;69.60;;;;;;4987957;28;20030;-70
2022/06/19 02:52:19;;;;;;;9.75;4.38;;;22.30;70.00;;;;;;4987089;28;20223;-71
2022/06/19 02:54:45;;;;;;;6.73;3.93;;;22.20;71.10;;;;;;5004289;28;20084;-71
2022/06/19 02:57:12;;;;;;;7.35;3.80;;;22.20;70.90;;;;;;5004508;28;20029;-70
2022/06/19 02:59:38;;;;;;;12.45;5.35;;;22.20;71.90;;;;;;4955472;28;20060;-71
2022/06/19 03:02:04;;;;;;;8.93;4.13;;;22.20;71.70;;;;;;4995333;28;20018;-70
2022/06/19 03:04:44;;;;;;;7.57;4.18;;;22.20;72.00;;;;;;4996826;28;20213;-70
2022/06/19 03:07:09;;;;;;;6.88;3.72;;;22.10;71.40;;;;;;4948891;28;20042;-70
2022/06/19 03:09:35;;;;;;;6.47;3.83;;;22.10;72.80;;;;;;4984692;28;20090;-70
2022/06/19 03:12:01;;;;;;;5.27;3.27;;;22.10;72.00;;;;;;4984926;28;20030;-70
2022/06/19 03:14:27;;;;;;;10.48;3.75;;;22.10;71.60;;;;;;4984630;28;20029;-70
2022/06/19 03:16:53;;;;;;;10.23;3.57;;;22.10;71.20;;;;;;4992792;28;20101;-71
2022/06/19 03:19:18;;;;;;;6.80;3.73;;;22.10;70.70;;;;;;4980441;28;20034;-70
2022/06/19 03:21:44;;;;;;;7.53;3.70;;;22.00;71.40;;;;;;4967504;28;20373;-70
2022/06/19 03:24:10;;;;;;;8.40;3.60;;;22.00;71.80;;;;;;4983074;28;20018;-71
2022/06/19 03:26:36;;;;;;;8.52;3.55;;;22.00;72.00;;;;;;4967389;28;20027;-71
2022/06/19 03:29:02;;;;;;;7.78;4.10;;;22.00;72.60;;;;;;4983628;28;20030;-70
2022/06/19 03:31:28;;;;;;;4.53;3.60;;;22.00;71.60;;;;;;4983513;28;20034;-70
2022/06/19 03:33:54;;;;;;;10.55;3.80;;;21.90;72.90;;;;;;4951015;28;20045;-71
2022/06/19 03:36:20;;;;;;;7.93;3.90;;;21.90;72.40;;;;;;4983369;28;20330;-70
2022/06/19 03:38:46;;;;;;;10.35;3.80;;;21.90;73.20;;;;;;4954572;29;20371;-70
2022/06/19 03:41:12;;;;;;;10.82;4.10;;;21.90;72.60;;;;;;4970044;28;20034;-70
2022/06/19 03:43:38;;;;;;;6.28;4.32;;;21.90;72.80;;;;;;4977511;28;20038;-70
2022/06/19 03:46:13;;;;;;;11.80;5.17;;;21.90;73.60;;;;;;4986450;28;20018;-70
2022/06/19 03:48:40;;;;;;;11.68;3.90;;;21.80;72.60;;;;;;5003735;28;20058;-71
2022/06/19 03:51:06;;;;;;;7.43;4.40;;;21.70;72.00;;;;;;4970458;28;20325;-71
2022/06/19 03:53:32;;;;;;;7.13;4.53;;;21.50;72.40;;;;;;5003232;28;20033;-70
2022/06/19 03:55:58;;;;;;;10.80;4.60;;;21.40;72.90;;;;;;5003707;28;20226;-71
2022/06/19 03:58:24;;;;;;;12.43;4.78;;;21.40;74.10;;;;;;4986254;28;20022;-70
2022/06/19 04:00:49;;;;;;;10.53;4.83;;;21.30;74.10;;;;;;5003522;28;20250;-71
2022/06/19 04:03:15;;;;;;;7.57;4.17;;;21.30;74.60;;;;;;5003220;28;20217;-70
2022/06/19 04:05:41;;;;;;;8.00;4.33;;;21.20;75.10;;;;;;5002685;28;20096;-71
2022/06/19 04:08:07;;;;;;;7.70;4.67;;;21.20;75.00;;;;;;4995941;28;20029;-71
2022/06/19 04:10:32;;;;;;;6.77;4.13;;;21.20;74.90;;;;;;4983912;28;20037;-71
2022/06/19 04:12:58;;;;;;;10.13;4.57;;;21.20;75.30;;;;;;4966585;28;20027;-71
2022/06/19 04:15:24;;;;;;;7.97;4.50;;;21.20;75.50;;;;;;4983739;28;20069;-71
2022/06/19 04:17:50;;;;;;;9.47;4.57;;;21.20;76.40;;;;;;4950456;28;20034;-71
2022/06/19 04:20:16;;;;;;;10.73;3.90;;;21.20;75.60;;;;;;4983654;28;20274;-70
2022/06/19 04:22:41;;;;;;;8.80;4.07;;;21.30;74.00;;;;;;4965989;28;20026;-70
2022/06/19 04:25:13;;;;;;;11.73;3.90;;;21.30;75.10;;;;;;4990080;28;20073;-70
2022/06/19 04:27:41;;;;;;;7.70;3.72;;;21.30;73.00;;;;;;4970353;28;20268;-70
2022/06/19 04:30:08;;;;;;;7.40;3.55;;;21.30;72.80;;;;;;5002838;28;20228;-70
2022/06/19 04:32:33;;;;;;;7.03;3.47;;;21.30;72.60;;;;;;4985743;28;20056;-71
2022/06/19 04:34:59;;;;;;;6.73;3.63;;;21.30;72.20;;;;;;5002715;28;20030;-71
2022/06/19 04:37:25;;;;;;;6.93;3.83;;;21.30;72.40;;;;;;5001172;28;20030;-71
2022/06/19 04:39:50;;;;;;;8.87;3.33;;;21.30;71.90;;;;;;4983174;28;20058;-71
2022/06/19 04:42:16;;;;;;;10.83;3.93;;;21.30;72.20;;;;;;4983402;28;20033;-71
2022/06/19 04:44:42;;;;;;;9.97;3.60;;;21.40;71.60;;;;;;4982957;28;20027;-71
2022/06/19 04:47:07;;;;;;;6.07;3.53;;;21.50;71.00;;;;;;4983299;28;20046;-71
2022/06/19 04:49:33;;;;;;;4.90;3.53;;;21.60;71.00;;;;;;4966097;28;20329;-70
2022/06/19 04:51:59;;;;;;;7.47;3.77;;;21.70;71.40;;;;;;4990667;28;20339;-71
2022/06/19 04:54:25;;;;;;;6.40;3.90;;;21.70;74.20;;;;;;4993011;28;20325;-71
2022/06/19 04:56:51;;;;;;;8.20;3.63;;;21.90;71.80;;;;;;4972947;28;20195;-70
2022/06/19 04:59:16;;;;;;;7.77;3.77;;;21.90;73.20;;;;;;4990967;28;20030;-70
2022/06/19 05:01:42;;;;;;;9.07;3.27;;;22.00;74.10;;;;;;4999627;28;20272;-70
2022/06/19 05:04:10;;;;;;;6.67;3.43;;;22.10;70.70;;;;;;4973618;28;20030;-71
2022/06/19 05:06:36;;;;;;;8.38;3.08;;;22.00;70.10;;;;;;4964915;28;20282;-71
2022/06/19 05:09:02;;;;;;;7.20;3.30;;;22.10;69.80;;;;;;4982735;28;20333;-71
2022/06/19 05:11:31;;;;;;;5.57;3.40;;;22.10;70.00;;;;;;4984434;28;20031;-71
2022/06/19 05:13:57;;;;;;;7.88;3.40;;;22.20;71.10;;;;;;4993992;28;20014;-71
2022/06/19 05:16:23;;;;;;;6.00;3.00;;;22.30;70.80;;;;;;4987185;28;20049;-70
2022/06/19 05:18:51;;;;;;;10.27;3.45;;;22.40;68.30;;;;;;4973283;28;20049;-70
2022/06/19 05:21:17;;;;;;;5.25;3.45;;;22.40;69.20;;;;;;4957419;28;20030;-71
2022/06/19 05:23:44;;;;;;;9.43;3.28;;;22.50;70.30;;;;;;4988621;28;20029;-71
2022/06/19 05:26:17;;;;;;;4.88;3.25;;;22.60;70.20;;;;;;4956471;28;20084;-71
2022/06/19 05:28:44;;;;;;;5.80;3.08;;;22.80;70.10;;;;;;5006376;28;20038;-71
2022/06/19 05:31:10;;;;;;;5.35;3.67;;;22.90;70.20;;;;;;4988986;28;20022;-71
2022/06/19 05:33:36;;;;;;;11.43;3.60;;;22.90;68.50;;;;;;4988776;28;20258;-71
2022/06/19 05:36:02;;;;;;;5.95;3.67;;;23.00;68.80;;;;;;5006262;28;20265;-71
2022/06/19 05:38:28;;;;;;;6.40;3.45;;;23.00;69.90;;;;;;4977030;28;20070;-72
2022/06/19 05:40:55;;;;;;;9.50;3.37;;;23.00;68.40;;;;;;4988107;28;20379;-71
2022/06/19 05:43:21;;;;;;;6.60;3.15;;;23.10;67.90;;;;;;4982147;28;20350;-71
2022/06/19 05:45:58;;;;;;;;;;;23.10;67.30;;;;;;4985834;28;20318;-71
2022/06/19 05:48:24;;;;;;;6.32;3.00;;;23.10;68.10;;;;;;4969239;28;20219;-71
2022/06/19 05:51:14;;;;;;;5.93;2.90;;;23.20;69.00;;;;;;4953162;28;20049;-71
2022/06/19 05:53:53;;;;;;;8.68;3.35;;;23.20;68.40;;;;;;4985849;28;20093;-71
2022/06/19 05:56:18;;;;;;;6.10;3.63;;;23.30;66.30;;;;;;4985147;28;20031;-71
2022/06/19 05:58:44;;;;;;;4.03;3.23;;;23.30;66.60;;;;;;4986327;28;20225;-71
2022/06/19 06:01:10;;;;;;;8.93;3.88;;;23.30;66.60;;;;;;4985100;28;20209;-70
2022/06/19 06:03:36;;;;;;;3.92;2.75;;;23.40;66.00;;;;;;4952945;28;20031;-71
2022/06/19 06:06:07;;;;;;;3.85;3.40;;;23.40;66.20;;;;;;4985002;28;20023;-70
2022/06/19 06:08:37;;;;;;;5.28;3.17;;;23.40;66.20;;;;;;4964004;28;20085;-70
2022/06/19 06:11:03;;;;;;;8.30;3.60;;;23.50;66.50;;;;;;4980196;28;20188;-70
2022/06/19 06:13:29;;;;;;;6.53;3.40;;;23.50;65.40;;;;;;4971928;28;20029;-70
2022/06/19 06:15:55;;;;;;;8.60;3.30;;;23.60;66.00;;;;;;4988268;28;20034;-71
2022/06/19 06:18:21;;;;;;;7.50;3.22;;;23.70;65.50;;;;;;4939581;28;20294;-66
2022/06/19 06:20:55;;;;;;;5.65;3.30;;;23.70;65.70;;;;;;4992814;28;20037;-67
2022/06/19 06:23:21;;;;;;;5.55;3.60;;;23.80;67.70;;;;;;4990783;28;20076;-66
2022/06/19 06:25:46;;;;;;;10.68;2.80;;;23.90;65.60;;;;;;4995826;28;20085;-66
2022/06/19 06:28:12;;;;;;;7.23;3.27;;;24.00;64.80;;;;;;4992846;28;20345;-66
2022/06/19 06:30:38;;;;;;;8.43;3.45;;;24.10;63.20;;;;;;4979096;28;20073;-66
2022/06/19 06:33:05;;;;;;;10.33;3.30;;;24.20;63.60;;;;;;4999270;28;20029;-65
2022/06/19 06:35:32;;;;;;;8.35;3.00;;;24.30;63.40;;;;;;4996829;28;20274;-67
2022/06/19 06:37:59;;;;;;;6.88;3.08;;;24.40;63.10;;;;;;4998841;28;20030;-66
2022/06/19 06:40:25;;;;;;;7.20;3.25;;;24.50;63.20;;;;;;4985531;28;20046;-66
2022/06/19 06:42:51;;;;;;;11.55;3.15;;;24.50;62.50;;;;;;4985165;28;20037;-66
2022/06/19 06:45:17;;;;;;;9.02;3.35;;;24.60;61.30;;;;;;4985373;28;20321;-66
2022/06/19 06:47:43;;;;;;;10.75;3.50;;;24.70;61.00;;;;;;4968258;28;20045;-66
2022/06/19 06:50:09;;;;;;;10.85;3.45;;;24.80;60.80;;;;;;4992189;28;20057;-66
2022/06/19 06:52:35;;;;;;;7.78;3.92;;;24.90;60.90;;;;;;4988480;28;20027;-67
2022/06/19 06:55:00;;;;;;;9.50;3.80;;;24.90;60.30;;;;;;4984905;28;20230;-65
2022/06/19 06:57:26;;;;;;;6.97;3.60;;;25.10;59.70;;;;;;4987801;28;20270;-65
2022/06/19 06:59:52;;;;;;;12.65;3.83;;;25.10;59.40;;;;;;4985297;28;20031;-65
2022/06/19 07:02:18;;;;;;;10.87;3.67;;;25.20;59.20;;;;;;4985009;28;20045;-65
2022/06/19 07:04:43;;;;;;;8.20;3.73;;;25.30;59.80;;;;;;4984882;28;20282;-70
2022/06/19 07:07:09;;;;;;;6.80;3.35;;;25.30;59.40;;;;;;4985197;28;20031;-68
2022/06/19 07:09:35;;;;;;;10.93;4.13;;;25.30;59.70;;;;;;4992245;28;20080;-67
2022/06/19 07:12:02;;;;;;;5.85;3.25;;;25.40;59.50;;;;;;4995747;28;20018;-67
2022/06/19 07:14:28;;;;;;;8.68;3.47;;;25.50;59.30;;;;;;5002150;28;20037;-68
2022/06/19 07:16:53;;;;;;;9.13;4.10;;;25.50;59.20;;;;;;4992806;28;20019;-67
2022/06/19 07:19:19;;;;;;;10.10;3.35;;;25.60;59.10;;;;;;4997462;28;20031;-66
2022/06/19 07:21:45;;;;;;;11.03;3.53;;;25.70;58.10;;;;;;4998614;28;20071;-67
2022/06/19 07:24:11;;;;;;;12.85;4.18;;;25.80;58.00;;;;;;5003653;28;20266;-67
2022/06/19 07:26:37;;;;;;;11.75;3.63;;;25.80;57.90;;;;;;4999704;28;20323;-70
2022/06/19 07:29:03;;;;;;;10.32;3.75;;;25.80;58.30;;;;;;4979786;28;20033;-69
2022/06/19 07:31:28;;;;;;;14.57;4.13;;;25.90;58.70;;;;;;4961615;28;20030;-70
2022/06/19 07:33:54;;;;;;;9.63;3.90;;;25.90;59.00;;;;;;4993487;28;20027;-70
2022/06/19 07:36:21;;;;;;;11.15;4.60;;;25.90;57.80;;;;;;4978958;28;20034;-70
2022/06/19 07:38:47;;;;;;;9.65;3.72;;;26.00;58.20;;;;;;4958446;28;20019;-70
2022/06/19 07:41:13;;;;;;;11.15;3.67;;;26.10;58.60;;;;;;4990383;28;20230;-70
2022/06/19 07:43:39;;;;;;;16.40;5.13;;;26.20;57.00;;;;;;4970101;28;20034;-70
2022/06/19 07:46:05;;;;;;;16.13;5.93;;;26.20;57.50;;;;;;4963735;28;20027;-70
2022/06/19 07:51:15;;;;;;;8.55;4.30;;;26.30;57.20;;;;;;4998726;28;20089;-70
2022/06/19 07:53:41;;;;;;;8.35;4.25;;;26.40;56.80;;;;;;4999556;28;20018;-70
2022/06/19 07:56:06;;;;;;;15.18;4.90;;;26.50;57.00;;;;;;4984137;28;20026;-69
2022/06/19 07:58:34;;;;;;;10.07;3.50;;;26.60;56.70;;;;;;4966753;28;20060;-69
2022/06/19 08:01:00;;;;;;;10.25;4.38;;;26.60;56.70;;;;;;4942548;28;20031;-70
2022/06/19 08:03:26;;;;;;;11.32;4.07;;;26.60;56.60;;;;;;4996794;28;20065;-69
2022/06/19 08:05:52;;;;;;;9.13;3.63;;;26.70;56.40;;;;;;4984753;28;20027;-70
2022/06/19 08:08:24;;;;;;;8.23;3.75;;;26.70;56.50;;;;;;4980815;28;20034;-70
2022/06/19 08:10:51;;;;;;;12.05;4.70;;;26.80;56.20;;;;;;4974577;28;20101;-70
2022/06/19 08:13:21;;;;;;;8.35;3.60;;;26.90;56.60;;;;;;4969473;28;20022;-70
2022/06/19 08:15:49;;;;;;;8.85;3.65;;;26.90;56.60;;;;;;4994623;28;20049;-69
2022/06/19 08:18:15;;;;;;;12.95;5.03;;;27.00;56.80;;;;;;4975328;28;20120;-69
2022/06/19 08:20:41;;;;;;;17.92;5.07;;;27.00;57.20;;;;;;4984887;28;20023;-69
2022/06/19 08:23:07;;;;;;;15.85;4.47;;;27.10;56.40;;;;;;4991913;28;20037;-68
2022/06/19 08:25:32;;;;;;;11.65;4.18;;;27.10;56.00;;;;;;4993138;28;20026;-69
2022/06/19 08:27:58;;;;;;;12.75;3.92;;;27.20;55.40;;;;;;4969681;28;20038;-69
2022/06/19 08:30:28;;;;;;;8.88;4.07;;;27.30;56.20;;;;;;4985565;28;20018;-70
2022/06/19 08:32:54;;;;;;;14.25;5.00;;;27.30;55.70;;;;;;4985288;28;20295;-70
2022/06/19 08:35:20;;;;;;;9.93;5.32;;;27.40;55.50;;;;;;4985154;28;20019;-70
2022/06/19 08:37:47;;;;;;;;;;;27.50;56.40;;;;;;4969869;28;20336;-70
2022/06/19 08:41:02;;;;;;;10.50;4.35;;;27.50;56.50;;;;;;4985217;28;20270;-70
2022/06/19 08:43:47;;;;;;;14.23;4.68;;;27.60;55.60;;;;;;4973306;28;20045;-70
2022/06/19 08:46:59;;;;;;;12.40;5.10;;;27.70;54.00;;;;;;4993207;28;20034;-71
2022/06/19 08:50:12;;;;;;;7.68;4.78;;;27.80;55.40;;;;;;4966094;28;20146;-70
2022/06/19 08:53:03;;;;;;;12.43;4.93;;;27.90;55.20;;;;;;4982889;28;20229;-68
2022/06/19 08:55:46;;;;;;;10.32;5.72;;;28.00;54.80;;;;;;4983044;28;20265;-70
2022/06/19 08:58:30;;;;;;;15.38;4.85;;;28.10;55.50;;;;;;4966354;28;20015;-70
2022/06/19 09:01:15;;;;;;;13.75;5.05;;;28.30;54.00;;;;;;4965748;28;20022;-71
2022/06/19 09:07:15;;;;;;;11.02;4.40;;;28.30;55.50;;;;;;4969833;28;20049;-71
2022/06/19 09:10:15;;;;;;;13.32;5.38;;;28.40;54.10;;;;;;4982852;28;20026;-70
2022/06/19 09:13:19;;;;;;;12.82;5.38;;;28.60;53.90;;;;;;4965343;28;20318;-71
2022/06/19 09:16:07;;;;;;;12.48;5.43;;;28.90;53.10;;;;;;4981910;28;20097;-70
2022/06/19 09:18:47;;;;;;;13.80;5.63;;;29.20;52.60;;;;;;4966582;28;20038;-70
2022/06/19 09:21:43;;;;;;;12.02;5.63;;;29.20;52.80;;;;;;4982987;28;20074;-70
2022/06/19 09:24:40;;;;;;;11.80;5.85;;;29.20;51.80;;;;;;4968057;28;20058;-71
2022/06/19 09:27:05;;;;;;;17.73;6.13;;;29.20;52.60;;;;;;4984841;28;20098;-70
2022/06/19 09:29:49;;;;;;;17.77;6.00;;;29.10;53.30;;;;;;4975526;28;20278;-70
2022/06/19 09:32:34;;;;;;;15.68;5.60;;;29.10;52.90;;;;;;4971031;28;20214;-70
2022/06/19 09:35:19;;;;;;;19.40;6.18;;;29.20;52.60;;;;;;4959282;28;20022;-69
2022/06/19 09:38:09;;;;;;;14.05;6.13;;;29.30;53.10;;;;;;4942052;28;20229;-71
2022/06/19 09:40:43;;;;;;;21.50;7.07;;;29.40;53.50;;;;;;4945872;28;20027;-70
2022/06/19 09:43:28;;;;;;;13.00;5.85;;;29.50;51.70;;;;;;4961249;28;20081;-70
2022/06/19 09:46:26;;;;;;;13.00;6.40;;;29.60;51.50;;;;;;4920217;29;20229;-70
2022/06/19 09:49:23;;;;;;;16.30;6.30;;;29.80;51.50;;;;;;4970373;28;20148;-70
2022/06/19 09:52:18;;;;;;;17.42;6.47;;;29.80;52.30;;;;;;4934324;29;20031;-70
2022/06/19 09:55:01;;;;;;;11.88;5.70;;;29.80;51.60;;;;;;4962916;29;20071;-70
2022/06/19 09:57:42;;;;;;;12.27;6.57;;;29.80;51.10;;;;;;4931994;28;20054;-70
2022/06/19 10:00:20;;;;;;;16.83;6.38;;;29.80;50.30;;;;;;4947927;29;20030;-71
2022/06/19 10:02:57;;;;;;;17.35;6.53;;;29.80;50.50;;;;;;4917679;29;20034;-71
2022/06/19 10:05:44;;;;;;;15.77;6.32;;;29.80;50.40;;;;;;4949806;29;20078;-71
2022/06/19 10:08:11;;;;;;;15.85;6.40;;;29.90;50.00;;;;;;4949824;29;20344;-70
2022/06/19 10:11:00;;;;;;;20.30;6.90;;;29.90;50.70;;;;;;4949554;29;20031;-70
2022/06/19 10:14:01;;;;;;;15.90;6.70;;;30.00;50.80;;;;;;4938577;29;20053;-70
2022/06/19 10:16:50;;;;;;;15.85;6.75;;;30.20;50.10;;;;;;4945106;28;20086;-72
2022/06/19 10:19:37;;;;;;;17.23;6.13;;;30.30;49.30;;;;;;4979429;28;20042;-72
2022/06/19 10:22:49;;;;;;;18.27;6.40;;;30.40;49.20;;;;;;4976249;28;20040;-73
2022/06/19 10:25:30;;;;;;;17.25;6.07;;;30.40;48.40;;;;;;5004984;28;20077;-73
2022/06/19 10:28:46;;;;;;;20.02;6.68;;;30.40;48.10;;;;;;4987820;28;20031;-73
2022/06/19 10:31:48;;;;;;;13.75;5.95;;;30.40;47.60;;;;;;4977573;28;20317;-72
2022/06/19 10:34:30;;;;;;;19.63;7.43;;;30.50;46.90;;;;;;4977033;28;20324;-72
2022/06/19 10:37:07;;;;;;;13.52;6.32;;;30.50;47.30;;;;;;4987707;28;20213;-73
2022/06/19 10:40:09;;;;;;;15.27;6.15;;;30.60;47.70;;;;;;5004639;28;20034;-73
2022/06/19 10:42:50;;;;;;;20.33;6.22;;;30.70;47.90;;;;;;4987673;28;20054;-73
2022/06/19 10:45:34;;;;;;;14.02;6.07;;;30.80;47.20;;;;;;4972476;28;20201;-72
2022/06/19 10:48:25;;;;;;;12.38;6.10;;;30.90;46.10;;;;;;5004845;28;20368;-73
2022/06/19 10:51:26;;;;;;;15.20;6.68;;;31.00;46.70;;;;;;4987878;28;20041;-73
2022/06/19 10:54:07;;;;;;;16.17;6.85;;;31.00;46.60;;;;;;5004385;28;20045;-72
2022/06/19 10:57:04;;;;;;;13.95;6.20;;;31.00;46.90;;;;;;5004261;28;20037;-71
2022/06/19 10:59:30;;;;;;;13.43;5.78;;;31.10;46.10;;;;;;5004684;28;20214;-71
2022/06/19 11:05:26;;;;;;;16.38;5.28;;;31.40;43.30;;;;;;5011670;28;20057;-71
2022/06/19 11:07:52;;;;;;;20.98;6.03;;;31.60;43.90;;;;;;4956577;28;20037;-71
2022/06/19 11:10:37;;;;;;;18.80;6.43;;;31.60;43.00;;;;;;5004084;28;20030;-71
2022/06/19 11:13:05;;;;;;;13.05;5.47;;;31.70;44.10;;;;;;4998289;28;20030;-72
2022/06/19 11:15:43;;;;;;;11.93;5.60;;;31.70;44.10;;;;;;5012065;28;20065;-72
2022/06/19 11:18:20;;;;;;;16.42;5.10;;;31.80;44.30;;;;;;4971727;28;20337;-72
2022/06/19 11:21:03;;;;;;;15.63;6.18;;;31.90;43.00;;;;;;5003317;28;20038;-78
2022/06/19 11:23:39;;;;;;;21.30;5.45;;;31.90;43.00;;;;;;4970444;28;20094;-71
2022/06/19 11:26:13;;;;;;;13.07;5.20;;;32.00;43.00;;;;;;4970599;28;20037;-71
2022/06/19 11:28:53;;;;;;;18.38;5.40;;;32.10;42.80;;;;;;4970372;28;20101;-70
2022/06/19 11:31:59;;;;;;;18.60;5.20;;;32.10;40.80;;;;;;5014621;28;20022;-70
2022/06/19 11:37:30;;;;;;;13.90;4.30;;;32.30;40.10;;;;;;4971438;28;20363;-71
2022/06/19 11:39:59;;;;;;;;;;;32.40;40.90;;;;;;4989012;28;20040;-71
2022/06/19 11:42:34;;;;;;;12.73;4.53;;;32.50;40.50;;;;;;5012485;28;19972;-69
2022/06/19 11:45:15;;;;;;;14.13;4.22;;;32.50;42.50;;;;;;5009241;28;20031;-71
2022/06/19 11:48:12;;;;;;;13.40;5.13;;;32.50;41.00;;;;;;4990771;28;20022;-74
2022/06/19 11:50:50;;;;;;;14.90;4.95;;;32.60;40.20;;;;;;4991078;28;20041;-74
2022/06/19 11:53:30;;;;;;;21.13;5.40;;;32.80;41.40;;;;;;4978782;28;20030;-74
2022/06/19 11:56:22;;;;;;;17.23;5.15;;;32.70;40.80;;;;;;4955231;28;20023;-72
2022/06/19 11:58:59;;;;;;;17.70;4.53;;;32.80;39.30;;;;;;4967861;28;20061;-72
2022/06/19 12:01:41;;;;;;;16.17;4.40;;;32.90;39.10;;;;;;4936282;28;20257;-74
2022/06/19 12:04:27;;;;;;;14.65;4.55;;;32.90;39.00;;;;;;4967184;28;20027;-74
2022/06/19 12:07:04;;;;;;;10.35;4.45;;;33.00;39.90;;;;;;4972703;28;20233;-74
2022/06/19 12:09:32;;;;;;;19.08;5.20;;;33.10;39.60;;;;;;4992477;28;20037;-73
2022/06/19 12:12:11;;;;;;;15.75;4.90;;;33.20;39.80;;;;;;5011332;28;20229;-73
2022/06/19 12:15:21;;;;;;;17.83;5.70;;;33.20;40.20;;;;;;5003960;28;20037;-74
2022/06/19 12:17:47;;;;;;;15.40;4.93;;;33.30;40.20;;;;;;4991525;28;20141;-74
2022/06/19 12:20:13;;;;;;;12.30;4.85;;;33.40;39.30;;;;;;4953976;28;20077;-72
2022/06/19 12:22:58;;;;;;;;;;;33.50;41.10;;;;;;5005698;28;20018;-74
2022/06/19 12:25:32;;;;;;;17.08;5.80;;;33.70;40.30;;;;;;4986589;28;19917;-73
2022/06/19 12:28:32;;;;;;;21.40;5.70;;;33.80;39.80;;;;;;5002988;28;20026;-72
2022/06/19 12:31:27;;;;;;;13.77;4.97;;;33.80;39.60;;;;;;5000283;28;20022;-73
2022/06/19 12:34:14;;;;;;;20.80;5.90;;;34.00;39.90;;;;;;4970949;28;20022;-73
2022/06/19 12:36:40;;;;;;;17.20;4.95;;;34.10;39.50;;;;;;5011575;28;20014;-70
2022/06/19 12:39:10;;;;;;;;;;;34.20;39.70;;;;;;5014499;28;20225;-72
2022/06/19 12:42:15;;;;;;;16.60;5.55;;;34.30;40.50;;;;;;4989571;28;20136;-73
2022/06/19 12:45:03;;;;;;;18.33;6.07;;;34.50;39.50;;;;;;5022668;28;20028;-74
2022/06/19 12:47:38;;;;;;;14.77;5.65;;;34.60;39.50;;;;;;5001038;28;20034;-72
2022/06/19 12:50:33;;;;;;;13.95;6.15;;;34.60;39.40;;;;;;5000634;28;20181;-73
2022/06/19 12:53:22;;;;;;;20.85;5.78;;;34.70;40.40;;;;;;4998434;28;20269;-72
2022/06/19 12:55:50;;;;;;;12.88;5.32;;;34.80;38.20;;;;;;4988408;28;20333;-72
2022/06/19 12:58:48;;;;;;;16.55;6.03;;;35.00;38.30;;;;;;4982088;28;20020;-71
2022/06/19 13:01:42;;;;;;;12.30;5.50;;;35.10;38.50;;;;;;4998447;28;20033;-75
2022/06/19 13:04:23;;;;;;;19.85;6.10;;;35.20;38.00;;;;;;4958747;28;20337;-71
2022/06/19 13:07:10;;;;;;;20.75;6.40;;;35.20;38.20;;;;;;4969649;28;20228;-70
2022/06/19 13:10:01;;;;;;;19.83;5.38;;;35.30;38.00;;;;;;5002003;28;20032;-68
2022/06/19 13:13:04;;;;;;;19.60;6.45;;;35.40;38.10;;;;;;4971649;28;20096;-70
2022/06/19 13:15:47;;;;;;;14.50;5.50;;;35.50;37.90;;;;;;4970481;28;20026;-69
2022/06/19 13:18:35;;;;;;;13.45;5.10;;;35.70;39.00;;;;;;4993056;28;20034;-69
2022/06/19 13:21:05;;;;;;;26.95;6.53;;;35.90;38.60;;;;;;4995992;28;20028;-69
2022/06/19 13:24:14;;;;;;;17.23;6.05;;;36.00;37.70;;;;;;5010327;28;20022;-70
2022/06/19 13:27:38;;;;;;;18.92;6.82;;;36.20;37.60;;;;;;4968284;28;20038;-69
2022/06/19 13:30:25;;;;;;;18.33;5.78;;;36.40;37.70;;;;;;4987189;28;20213;-69
2022/06/19 13:33:09;;;;;;;15.43;5.95;;;36.50;37.10;;;;;;4985708;28;20376;-70